Time;durP1;ratioP1;P1;durP2;ratioP2;P2;SDS_P1;SDS_P2;PMS_P1;PMS_P2;Temp;Humidity;BMP_temperature;BMP_pressure;BME280_temperature;BME280_humidity;BME280_pressure;Samples;Min_cycle;Max_cycle;Signal;HPM_P1;HPM_P2
2022/08/03 00:01:17;;;;;;;;;7.00;4.00;;;;;28.02;67.76;101279.41;5035586;28;60747;-73
2022/08/03 00:03:43;;;;;;;;;7.33;4.00;;;;;27.96;68.08;101279.72;5036542;28;45370;-72
2022/08/03 00:06:08;;;;;;;;;4.00;4.00;;;;;27.93;68.17;101278.06;5035003;28;45494;-73
2022/08/03 00:08:33;;;;;;;;;4.00;4.00;;;;;27.89;68.91;101270.16;5036582;28;45435;-71
2022/08/03 00:10:59;;;;;;;;;4.33;4.00;;;;;27.86;68.96;101283.91;5018351;28;46884;-73
2022/08/03 00:13:24;;;;;;;;;4.00;4.00;;;;;27.82;69.29;101279.63;5035807;28;50268;-71
2022/08/03 00:15:50;;;;;;;;;4.33;4.00;;;;;27.77;69.59;101279.84;5034774;28;45553;-73
2022/08/03 00:18:15;;;;;;;;;4.33;3.00;;;;;27.75;70.28;101281.78;5019889;28;45397;-71
2022/08/03 00:20:41;;;;;;;;;4.00;4.00;;;;;27.71;69.79;101285.63;5052033;28;56928;-70
2022/08/03 00:23:06;;;;;;;;;4.67;4.33;;;;;27.67;69.93;101286.69;5038183;28;45249;-71
2022/08/03 00:25:33;;;;;;;;;7.33;5.00;;;;;27.63;70.73;101277.81;5038921;28;59614;-73
2022/08/03 00:27:59;;;;;;;;;4.67;4.00;;;;;27.60;71.39;101285.28;5045893;28;45253;-70
2022/08/03 00:30:24;;;;;;;;;5.00;4.00;;;;;27.59;71.20;101284.41;5039183;28;46555;-71
2022/08/03 00:32:49;;;;;;;;;3.00;3.00;;;;;27.54;71.78;101277.44;5038372;28;47762;-71
2022/08/03 00:35:15;;;;;;;;;6.00;5.00;;;;;27.52;71.47;101277.53;5039245;28;45217;-71
2022/08/03 00:37:40;;;;;;;;;4.00;3.00;;;;;27.50;72.03;101274.03;5039528;28;45463;-73
2022/08/03 00:40:06;;;;;;;;;4.00;3.00;;;;;27.46;72.56;101275.13;5038911;28;45767;-71
2022/08/03 00:42:31;;;;;;;;;3.00;3.00;;;;;27.45;72.62;101277.94;5039225;28;45304;-72
2022/08/03 00:44:57;;;;;;;;;3.00;3.00;;;;;27.41;72.15;101280.78;5038677;28;59009;-71
2022/08/03 00:47:22;;;;;;;;;2.67;2.00;;;;;27.39;72.63;101273.72;5038856;28;45395;-72
2022/08/03 00:49:47;;;;;;;;;4.00;2.00;;;;;27.39;72.75;101274.59;5038121;28;65681;-73
2022/08/03 00:52:14;;;;;;;;;3.00;3.00;;;;;27.39;73.21;101280.00;5038597;28;63171;-71
2022/08/03 00:54:39;;;;;;;;;2.33;2.33;;;;;27.39;72.88;101277.31;5052314;28;45440;-71
2022/08/03 00:57:05;;;;;;;;;5.00;3.00;;;;;27.36;72.79;101266.59;5049985;28;58026;-71
2022/08/03 00:59:31;;;;;;;;;3.00;3.00;;;;;27.35;72.92;101266.69;5039535;28;45236;-70
2022/08/03 01:01:56;;;;;;;;;2.00;2.00;;;;;27.33;73.66;101274.91;5039137;28;45230;-71
2022/08/03 01:04:22;;;;;;;;;3.00;2.33;;;;;27.30;73.11;101268.75;5038908;28;45174;-71
2022/08/03 01:06:59;;;;;;;;;6.00;3.00;;;;;27.28;72.96;101265.25;5039371;28;45403;-71
2022/08/03 01:09:33;;;;;;;;;2.33;2.33;;;;;27.24;74.09;101267.25;5038628;28;45774;-71
2022/08/03 01:12:03;;;;;;;;;3.67;3.00;;;;;27.19;73.97;101254.88;5038803;28;45408;-70
2022/08/03 01:14:36;;;;;;;;;3.00;2.00;;;;;27.17;74.13;101259.53;5037638;28;45339;-71
2022/08/03 01:17:04;;;;;;;;;4.00;3.00;;;;;27.14;74.37;101256.00;5038376;28;45436;-72
2022/08/03 01:19:32;;;;;;;;;2.67;2.67;;;;;27.11;74.18;101253.47;5057413;28;46642;-72
2022/08/03 01:22:22;;;;;;;;;2.00;2.00;;;;;27.05;74.41;101247.41;5045999;28;45192;-70
2022/08/03 01:24:53;;;;;;;;;5.00;4.33;;;;;27.05;74.51;101256.41;5058068;28;45360;-72
2022/08/03 01:27:28;;;;;;;;;3.00;3.00;;;;;26.99;74.83;101242.31;5055126;28;45403;-72
2022/08/03 01:29:57;;;;;;;;;2.00;2.00;;;;;26.99;74.48;101247.72;5020180;28;45636;-72
2022/08/03 01:32:29;;;;;;;;;3.00;1.67;;;;;26.95;74.36;101244.28;5038432;28;45242;-71
2022/08/03 01:34:59;;;;;;;;;1.67;1.67;;;;;26.94;73.92;101242.53;5038389;28;45291;-70
2022/08/03 01:37:30;;;;;;;;;2.00;2.00;;;;;26.92;73.74;101243.59;5045402;28;45430;-72
2022/08/03 01:39:57;;;;;;;;;1.67;1.67;;;;;26.86;73.57;101237.53;5057106;28;46323;-70
2022/08/03 01:42:23;;;;;;;;;3.00;1.00;;;;;26.87;73.61;101241.09;5058444;28;45418;-71
2022/08/03 01:44:51;;;;;;;;;1.33;1.33;;;;;26.84;72.81;101235.81;5057354;28;45394;-72
2022/08/03 01:47:19;;;;;;;;;1.33;1.00;;;;;26.84;72.89;101235.81;5040138;28;45376;-71
2022/08/03 01:49:45;;;;;;;;;2.00;2.00;;;;;26.80;73.62;101234.25;5039850;28;45411;-70
2022/08/03 01:52:13;;;;;;;;;1.67;1.67;;;;;26.78;72.78;101233.44;5057670;28;64146;-73
2022/08/03 01:54:43;;;;;;;;;3.33;1.33;;;;;26.79;72.91;101232.47;5056976;28;45380;-71
2022/08/03 01:57:09;;;;;;;;;2.00;2.00;;;;;26.75;73.32;101228.19;5040531;28;45256;-71
2022/08/03 01:59:36;;;;;;;;;1.67;1.00;;;;;26.76;73.12;101235.34;5056819;28;46039;-73
2022/08/03 02:02:03;;;;;;;;;1.00;1.00;;;;;26.70;72.86;101233.81;5057109;28;45351;-72
2022/08/03 02:04:29;;;;;;;;;2.00;2.00;;;;;26.67;73.00;101224.97;5057127;28;45421;-71
2022/08/03 02:06:56;;;;;;;;;2.00;2.00;;;;;26.66;73.08;101228.63;5057581;28;59274;-71
2022/08/03 02:09:22;;;;;;;;;2.67;2.00;;;;;26.64;73.56;101231.44;5039000;28;68405;-71
2022/08/03 02:11:50;;;;;;;;;2.00;2.00;;;;;26.59;73.52;101228.06;5057988;28;45513;-71
2022/08/03 02:14:16;;;;;;;;;3.67;2.00;;;;;26.56;73.87;101234.50;5058090;28;45281;-70
2022/08/03 02:16:42;;;;;;;;;1.33;1.33;;;;;26.51;73.85;101228.44;5056123;28;56635;-72
2022/08/03 02:19:09;;;;;;;;;4.00;2.33;;;;;26.51;73.79;101227.56;5057300;28;45833;-71
2022/08/03 02:21:36;;;;;;;;;3.33;2.00;;;;;26.47;74.19;101212.41;5040071;28;45407;-71
2022/08/03 02:24:03;;;;;;;;;2.00;2.00;;;;;26.43;73.90;101217.13;5039988;28;45500;-71
2022/08/03 02:26:29;;;;;;;;;2.00;2.00;;;;;26.40;74.27;101211.78;5039908;28;45197;-70
2022/08/03 02:28:57;;;;;;;;;2.00;2.00;;;;;26.36;73.90;101211.06;5040927;28;46166;-71
2022/08/03 02:31:25;;;;;;;;;3.33;2.00;;;;;26.35;74.52;101213.84;5036273;28;45320;-70
2022/08/03 02:33:57;;;;;;;;;3.00;2.00;;;;;26.29;74.27;101212.31;5037588;28;45384;-70
2022/08/03 02:36:27;;;;;;;;;2.00;1.00;;;;;26.25;74.61;101221.53;5019854;28;45365;-72
2022/08/03 02:38:55;;;;;;;;;3.67;2.67;;;;;26.24;74.86;101216.19;5037184;28;46827;-72
2022/08/03 02:41:24;;;;;;;;;2.00;2.00;;;;;26.20;74.86;101220.00;5035119;28;45481;-71
2022/08/03 02:43:53;;;;;;;;;3.33;2.00;;;;;26.17;74.70;101218.34;5044441;28;45380;-70
2022/08/03 02:46:24;;;;;;;;;1.00;1.00;;;;;26.15;75.13;101220.22;5039228;28;45353;-72
2022/08/03 02:48:51;;;;;;;;;2.00;2.00;;;;;26.12;75.40;101218.53;5056266;28;46580;-72
2022/08/03 02:51:17;;;;;;;;;1.33;1.33;;;;;26.09;75.54;101206.97;5055622;28;45515;-72
2022/08/03 02:53:44;;;;;;;;;2.00;2.00;;;;;26.09;75.37;101209.69;5038899;28;49737;-71
2022/08/03 02:56:10;;;;;;;;;5.00;2.00;;;;;26.07;76.03;101209.78;5040718;28;45393;-71
2022/08/03 02:58:36;;;;;;;;;1.00;1.00;;;;;26.05;75.79;101211.69;5035638;28;59010;-72
2022/08/03 03:01:01;;;;;;;;;1.00;1.00;;;;;26.04;76.30;101211.72;5035135;28;69267;-72
2022/08/03 03:03:27;;;;;;;;;1.33;1.33;;;;;26.01;76.09;101210.06;5036203;28;45320;-71
2022/08/03 03:05:53;;;;;;;;;5.00;2.00;;;;;25.99;76.50;101206.53;5036033;28;45342;-70
2022/08/03 03:08:20;;;;;;;;;1.00;1.00;;;;;25.98;76.84;101201.19;5035915;28;46426;-70
2022/08/03 03:10:46;;;;;;;;;1.00;1.00;;;;;25.96;76.43;101209.41;5036987;28;45569;-72
2022/08/03 03:13:14;;;;;;;;;3.00;2.00;;;;;25.92;76.46;101205.06;5037135;28;45324;-71
2022/08/03 03:15:40;;;;;;;;;2.33;1.00;;;;;25.86;76.84;101200.84;5036766;28;45534;-70
2022/08/03 03:18:08;;;;;;;;;1.67;1.33;;;;;25.84;77.34;101191.91;5035672;28;45582;-73
2022/08/03 03:20:35;;;;;;;;;2.00;2.00;;;;;25.83;77.77;101201.00;5051073;28;45376;-73
2022/08/03 03:23:01;;;;;;;;;1.00;1.00;;;;;25.80;77.26;101194.84;5036173;28;45353;-71
2022/08/03 03:25:31;;;;;;;;;4.00;2.00;;;;;25.77;77.63;101193.13;5035644;28;45694;-71
2022/08/03 03:27:57;;;;;;;;;3.00;1.33;;;;;25.74;77.69;101193.28;5041744;28;46266;-72
2022/08/03 03:30:23;;;;;;;;;3.00;2.00;;;;;25.70;77.99;101188.06;5035595;28;45526;-72
2022/08/03 03:32:48;;;;;;;;;3.33;2.00;;;;;25.66;78.59;101192.72;5035203;28;53332;-71
2022/08/03 03:35:15;;;;;;;;;2.00;2.00;;;;;25.62;78.95;101183.03;5034624;28;63278;-70
2022/08/03 03:37:40;;;;;;;;;2.00;2.00;;;;;25.59;78.48;101177.75;5036646;28;45689;-71
2022/08/03 03:40:07;;;;;;;;;2.33;1.33;;;;;25.57;78.99;101182.34;5035216;28;45273;-71
2022/08/03 03:42:33;;;;;;;;;3.00;1.00;;;;;25.56;78.68;101186.84;5036760;28;45194;-72
2022/08/03 03:45:02;;;;;;;;;1.33;1.33;;;;;25.55;79.46;101181.53;5018553;28;45313;-70
2022/08/03 03:47:28;;;;;;;;;1.00;1.00;;;;;25.52;79.42;101192.50;5036071;28;46801;-72
2022/08/03 03:49:53;;;;;;;;;1.00;1.00;;;;;25.51;79.26;101191.59;5035794;28;65131;-71
2022/08/03 03:52:19;;;;;;;;;3.00;3.00;;;;;25.50;79.51;101189.84;5018660;28;45514;-70
2022/08/03 03:54:44;;;;;;;;;1.00;1.00;;;;;25.48;80.31;101193.56;5053762;28;45256;-73
2022/08/03 03:57:10;;;;;;;;;2.67;1.33;;;;;25.44;80.11;101189.25;5049156;28;70108;-71
2022/08/03 03:59:40;;;;;;;;;4.67;2.00;;;;;25.40;79.77;101183.09;5040012;28;45226;-71
2022/08/03 04:02:07;;;;;;;;;5.67;2.00;;;;;25.39;80.66;101184.03;5022479;28;45602;-70
2022/08/03 04:12:49;;;;;;;;;4.00;1.67;;;;;25.35;80.77;101195.94;5059125;28;45470;-73
2022/08/03 04:15:14;;;;;;;;;1.67;1.00;;;;;25.30;81.18;101192.56;5057769;28;59640;-71
2022/08/03 04:17:41;;;;;;;;;3.00;2.00;;;;;25.30;80.83;101195.25;5038342;28;67648;-72
2022/08/03 04:20:07;;;;;;;;;1.33;1.33;;;;;25.27;81.19;101203.53;5051127;28;45313;-70
2022/08/03 04:22:33;;;;;;;;;3.00;0.33;;;;;25.25;81.48;101200.91;5042244;28;45475;-71
2022/08/03 04:25:04;;;;;;;;;3.00;2.00;;;;;25.23;81.46;101194.66;5038272;28;48488;-72
2022/08/03 04:27:39;;;;;;;;;2.67;1.67;;;;;25.20;81.94;101192.13;5044150;28;45831;-72
2022/08/03 04:30:05;;;;;;;;;1.67;1.67;;;;;25.18;81.91;101190.41;5038462;28;45618;-70
2022/08/03 04:32:31;;;;;;;;;1.33;1.33;;;;;25.15;82.28;101195.97;5038354;28;45357;-71
2022/08/03 04:34:57;;;;;;;;;4.00;2.00;;;;;25.13;82.62;101192.44;5039723;28;45333;-72
2022/08/03 04:37:26;;;;;;;;;4.00;3.00;;;;;25.14;82.75;101197.78;5038532;28;59990;-71
2022/08/03 04:39:53;;;;;;;;;2.00;2.00;;;;;25.13;82.62;101195.13;5039055;28;45312;-72
2022/08/03 04:42:19;;;;;;;;;2.00;2.00;;;;;25.13;83.26;101200.53;5039415;28;45304;-71
2022/08/03 04:44:45;;;;;;;;;2.00;2.00;;;;;25.11;83.01;101202.44;5037330;28;64085;-71
2022/08/03 04:47:11;;;;;;;;;2.00;2.00;;;;;25.09;83.51;101197.13;5037180;28;58567;-72
2022/08/03 04:49:37;;;;;;;;;3.00;2.33;;;;;25.08;83.55;101200.72;5038989;28;45237;-70
2022/08/03 04:52:03;;;;;;;;;5.33;2.33;;;;;25.07;83.77;101199.84;5038193;28;45503;-72
2022/08/03 04:54:29;;;;;;;;;2.00;2.00;;;;;25.04;83.66;101188.28;5052126;28;45394;-71
2022/08/03 04:56:55;;;;;;;;;3.00;2.00;;;;;25.05;84.08;101192.75;5051087;28;46561;-71
2022/08/03 04:59:20;;;;;;;;;4.00;2.67;;;;;25.03;84.71;101195.50;5038383;28;58782;-72
2022/08/03 05:01:45;;;;;;;;;2.00;2.00;;;;;25.04;84.20;101194.56;5038985;28;50824;-71
2022/08/03 05:04:11;;;;;;;;;5.00;2.00;;;;;25.03;84.90;101195.50;5036498;28;60983;-72
2022/08/03 05:06:36;;;;;;;;;3.67;3.00;;;;;25.04;85.04;101197.28;5038594;28;46555;-71
2022/08/03 05:09:02;;;;;;;;;3.67;2.00;;;;;25.03;84.94;101202.72;5038824;28;45241;-70
2022/08/03 05:11:27;;;;;;;;;3.00;3.00;;;;;25.01;84.90;101192.00;5037972;28;45431;-71
2022/08/03 05:13:53;;;;;;;;;3.00;3.00;;;;;25.04;85.31;101199.97;5038857;28;45487;-73
2022/08/03 05:16:18;;;;;;;;;5.33;3.00;;;;;25.02;85.93;101196.44;5038500;28;46676;-72
2022/08/03 05:18:44;;;;;;;;;3.33;3.33;;;;;25.05;85.57;101204.44;5038075;28;55348;-72
2022/08/03 05:21:12;;;;;;;;;2.00;2.00;;;;;25.02;85.77;101204.56;5052708;28;45291;-71
2022/08/03 05:23:38;;;;;;;;;2.00;2.00;;;;;24.99;86.00;101188.50;5039115;28;45163;-70
2022/08/03 05:26:03;;;;;;;;;3.00;3.00;;;;;25.07;85.80;101205.25;5037337;28;45520;-70
2022/08/03 05:28:29;;;;;;;;;6.67;5.00;;;;;25.06;86.55;101208.91;5044368;28;45182;-72
2022/08/03 05:30:54;;;;;;;;;2.33;2.33;;;;;25.10;86.22;101203.41;5038557;28;45218;-70
2022/08/03 05:33:19;;;;;;;;;3.00;3.00;;;;;25.08;86.28;101192.63;5038263;28;49928;-70
2022/08/03 05:35:45;;;;;;;;;5.33;4.00;;;;;25.11;86.89;101205.16;5037740;28;66003;-72
2022/08/03 05:38:10;;;;;;;;;6.00;4.33;;;;;25.14;87.11;101205.00;5038270;28;50801;-72
2022/08/03 05:40:35;;;;;;;;;5.00;5.00;;;;;25.15;86.63;101204.06;5037690;28;57578;-72
2022/08/03 05:43:01;;;;;;;;;7.00;6.00;;;;;25.15;87.28;101206.78;5038657;28;45303;-72
2022/08/03 05:45:26;;;;;;;;;6.67;5.00;;;;;25.19;87.33;101211.06;5037796;28;62802;-72
2022/08/03 05:47:51;;;;;;;;;6.33;4.00;;;;;25.17;87.41;101211.16;5041848;28;45410;-71
2022/08/03 05:50:18;;;;;;;;;5.00;5.00;;;;;25.22;87.30;101210.97;5042309;28;45285;-70
2022/08/03 05:52:43;;;;;;;;;8.00;5.00;;;;;25.23;86.89;101207.31;5023768;28;45349;-73
2022/08/03 05:55:11;;;;;;;;;5.67;5.67;;;;;25.25;86.98;101213.53;5061646;22;45833;-71
2022/08/03 05:57:37;;;;;;;;;5.00;5.00;;;;;25.27;87.34;101208.94;5036719;28;45243;-72
2022/08/03 06:00:07;;;;;;;;;5.00;5.00;;;;;25.27;87.54;101203.53;5038137;28;45391;-72
2022/08/03 06:02:33;;;;;;;;;8.00;5.00;;;;;25.28;87.62;101208.84;5038243;28;45390;-70
2022/08/03 06:04:58;;;;;;;;;7.67;5.00;;;;;25.33;87.21;101220.34;5053518;28;45451;-71
2022/08/03 06:07:24;;;;;;;;;5.00;4.00;;;;;25.36;87.14;101218.47;5037045;28;63730;-71
2022/08/03 06:09:49;;;;;;;;;6.00;6.00;;;;;25.37;86.65;101223.81;5053719;28;45411;-73
2022/08/03 06:12:14;;;;;;;;;5.67;5.00;;;;;25.41;86.71;101224.53;5037225;28;59928;-72
2022/08/03 06:14:40;;;;;;;;;4.67;4.67;;;;;25.42;87.33;101216.38;5037193;28;65166;-70
2022/08/03 06:17:05;;;;;;;;;8.67;6.00;;;;;25.44;86.74;101209.06;5037205;28;45466;-72
2022/08/03 06:19:30;;;;;;;;;8.00;7.00;;;;;25.51;86.80;101217.75;5036749;28;64462;-72
2022/08/03 06:21:56;;;;;;;;;7.00;7.00;;;;;25.50;87.17;101214.19;5037344;28;58371;-71
2022/08/03 06:24:21;;;;;;;;;9.00;7.33;;;;;25.55;87.34;101220.25;5037446;28;45968;-70
2022/08/03 06:26:46;;;;;;;;;8.67;6.00;;;;;25.57;87.19;101221.09;5041763;28;64564;-73
2022/08/03 06:29:12;;;;;;;;;7.00;5.67;;;;;25.59;87.39;101213.78;5038378;28;45349;-71
2022/08/03 06:31:37;;;;;;;;;7.00;5.00;;;;;25.62;86.99;101212.78;5053485;28;45422;-71
2022/08/03 06:34:04;;;;;;;;;5.00;5.00;;;;;25.67;86.87;101224.22;5037137;28;46849;-72
2022/08/03 06:36:30;;;;;;;;;5.67;5.67;;;;;25.70;86.97;101220.53;5052854;28;45591;-73
2022/08/03 06:38:59;;;;;;;;;6.67;6.00;;;;;25.73;86.58;101223.97;5037731;28;45326;-71
2022/08/03 06:41:26;;;;;;;;;9.00;5.67;;;;;25.75;86.88;101216.69;5037657;28;45226;-73
2022/08/03 06:43:51;;;;;;;;;6.00;6.00;;;;;25.79;87.59;101221.00;5052860;28;46332;-71
2022/08/03 06:46:17;;;;;;;;;9.33;5.67;;;;;25.80;86.96;101208.38;5037214;28;45307;-70
2022/08/03 06:48:42;;;;;;;;;5.00;5.00;;;;;25.86;87.12;101221.59;5036724;28;62234;-72
2022/08/03 06:51:07;;;;;;;;;7.33;6.33;;;;;25.89;86.94;101217.84;5037520;28;45279;-72
2022/08/03 06:53:33;;;;;;;;;5.00;5.00;;;;;25.89;87.07;101209.75;5037214;28;46036;-70
2022/08/03 06:55:58;;;;;;;;;2.33;2.33;;;;;25.96;86.62;101214.81;5037280;28;45418;-71
2022/08/03 06:58:24;;;;;;;;;10.00;6.67;;;;;25.97;87.04;101208.44;5036608;28;59256;-73
2022/08/03 07:00:49;;;;;;;;;5.33;5.00;;;;;26.04;86.25;101206.31;5037227;28;45565;-71
2022/08/03 07:03:15;;;;;;;;;7.67;5.00;;;;;26.08;85.77;101213.34;5036274;28;69563;-73
2022/08/03 07:05:41;;;;;;;;;5.67;4.33;;;;;26.12;85.81;101214.97;5037121;28;45304;-70
2022/08/03 07:08:07;;;;;;;;;6.33;4.67;;;;;26.15;85.43;101213.94;5037137;28;45366;-70
2022/08/03 07:10:32;;;;;;;;;11.00;6.00;;;;;26.17;85.51;101212.91;5052670;28;45341;-70
2022/08/03 07:12:57;;;;;;;;;8.33;6.00;;;;;26.21;84.74;101217.25;5036763;28;47212;-72
2022/08/03 07:15:24;;;;;;;;;8.33;6.00;;;;;26.24;84.53;101210.78;5035532;28;68286;-70
2022/08/03 07:17:49;;;;;;;;;9.00;5.00;;;;;26.28;84.70;101217.81;5036925;28;45228;-71
2022/08/03 07:20:17;;;;;;;;;7.67;5.67;;;;;26.32;84.57;101214.03;5036313;28;53318;-71
2022/08/03 07:22:43;;;;;;;;;7.33;6.00;;;;;26.35;84.65;101214.72;5036750;28;45768;-73
2022/08/03 07:25:08;;;;;;;;;6.00;6.00;;;;;26.36;84.60;101204.75;5035836;28;45299;-71
2022/08/03 07:27:34;;;;;;;;;5.67;5.67;;;;;26.42;84.09;101209.94;5042413;28;45472;-71
2022/08/03 07:29:59;;;;;;;;;8.67;6.00;;;;;26.46;83.54;101206.09;5036353;28;56306;-71
2022/08/03 07:32:25;;;;;;;;;9.00;6.33;;;;;26.50;83.86;101209.56;5035509;28;47705;-70
2022/08/03 07:34:50;;;;;;;;;8.67;6.67;;;;;26.53;83.74;101210.28;5036706;28;45585;-72
2022/08/03 07:37:16;;;;;;;;;7.67;6.67;;;;;26.56;83.15;101211.94;5036049;28;62316;-72
2022/08/03 07:39:41;;;;;;;;;10.67;6.00;;;;;26.56;82.86;101207.41;5036589;28;45285;-71
2022/08/03 07:42:06;;;;;;;;;5.67;5.67;;;;;26.62;83.04;101211.66;5036584;28;45636;-71
2022/08/03 07:44:32;;;;;;;;;7.00;7.00;;;;;26.67;82.41;101206.88;5035411;28;45309;-71
2022/08/03 07:46:57;;;;;;;;;10.00;5.00;;;;;26.69;82.12;101207.69;5036034;28;52996;-72
2022/08/03 07:49:22;;;;;;;;;12.33;7.00;;;;;26.77;82.40;101218.13;5036019;28;57299;-70
2022/08/03 07:52:46;;;;;;;;;6.33;6.33;;;;;26.81;81.93;101217.03;5035589;28;62272;-71
2022/08/03 07:54:33;;;;;;;;;9.00;6.67;;;;;26.83;80.90;101210.56;5036187;28;45421;-70
2022/08/03 07:56:59;;;;;;;;;8.67;6.33;;;;;26.87;80.23;101206.75;5052184;28;45358;-71
2022/08/03 07:59:24;;;;;;;;;5.67;5.67;;;;;26.90;80.30;101206.59;5035905;28;55592;-71
2022/08/03 08:01:52;;;;;;;;;7.33;6.00;;;;;26.98;80.32;101213.47;5027227;28;67420;-71
2022/08/03 08:04:17;;;;;;;;;10.00;6.00;;;;;27.02;80.41;101212.34;5031858;28;45279;-72
2022/08/03 08:06:43;;;;;;;;;5.00;5.00;;;;;27.04;79.31;101205.00;5035402;28;45702;-70
2022/08/03 08:09:08;;;;;;;;;6.67;5.33;;;;;27.08;79.25;101204.81;5035574;28;45380;-73
2022/08/03 08:11:33;;;;;;;;;9.00;6.00;;;;;27.12;78.68;101205.53;5036312;28;45715;-70
2022/08/03 08:14:01;;;;;;;;;5.33;5.33;;;;;27.17;78.49;101208.00;5035581;28;65513;-71
2022/08/03 08:16:27;;;;;;;;;8.00;5.00;;;;;27.19;77.35;101208.78;5036100;28;45310;-73
2022/08/03 08:18:52;;;;;;;;;6.67;5.33;;;;;27.26;77.79;101207.50;5035208;28;59784;-73
2022/08/03 08:21:17;;;;;;;;;6.67;6.00;;;;;27.31;77.67;101208.13;5034402;28;57909;-70
2022/08/03 08:23:43;;;;;;;;;8.00;5.00;;;;;27.32;76.47;101202.63;5036240;28;45268;-70
2022/08/03 08:26:09;;;;;;;;;6.33;4.67;;;;;27.38;76.16;101206.88;5036233;28;45393;-71
2022/08/03 08:28:34;;;;;;;;;9.00;6.00;;;;;27.42;76.13;101203.88;5042794;28;45433;-72
2022/08/03 08:31:00;;;;;;;;;6.00;6.00;;;;;27.47;76.05;101206.38;5035217;28;70805;-71
2022/08/03 08:33:26;;;;;;;;;9.00;5.00;;;;;27.52;75.50;101203.41;5051535;28;45417;-71
2022/08/03 08:35:52;;;;;;;;;7.33;6.00;;;;;27.54;75.01;101196.97;5051570;28;45410;-72
2022/08/03 08:38:17;;;;;;;;;5.33;4.67;;;;;27.59;75.03;101189.44;5036250;28;45395;-70
2022/08/03 08:40:42;;;;;;;;;5.33;4.67;;;;;27.62;73.43;101188.38;5036693;28;47388;-71
2022/08/03 08:43:08;;;;;;;;;5.33;4.00;;;;;27.68;73.81;101193.47;5038605;28;59125;-71
2022/08/03 08:45:33;;;;;;;;;8.00;5.33;;;;;27.70;73.97;101188.91;5039132;28;45856;-71
2022/08/03 08:48:01;;;;;;;;;5.00;5.00;;;;;27.74;71.76;101186.88;5053984;28;60755;-71
2022/08/03 08:50:29;;;;;;;;;4.00;3.00;;;;;27.80;71.67;101198.25;5174214;22;46738;-70
2022/08/03 08:52:55;;;;;;;;;5.00;5.00;;;;;27.84;71.59;101189.00;5037553;28;45653;-73
2022/08/03 08:55:22;;;;;;;;;4.67;4.67;;;;;27.87;71.22;101185.25;5057171;28;58831;-73
2022/08/03 08:57:59;;;;;;;;;3.33;3.00;;;;;27.89;70.98;101176.03;5059651;28;45319;-72
2022/08/03 09:00:25;;;;;;;;;5.00;5.00;;;;;27.96;68.95;101175.69;5041544;28;45837;-72
2022/08/03 09:02:50;;;;;;;;;7.33;4.00;;;;;28.00;68.88;101180.88;5059183;28;45339;-72
2022/08/03 09:05:17;;;;;;;;;3.33;3.33;;;;;28.04;69.18;101182.44;5058817;28;53481;-71
2022/08/03 09:07:46;;;;;;;;;6.00;3.00;;;;;28.09;68.67;101183.06;5058120;28;45489;-72
2022/08/03 09:10:13;;;;;;;;;3.67;3.67;;;;;28.11;68.71;101177.53;5059102;28;45407;-72
2022/08/03 09:12:52;;;;;;;;;4.33;4.00;;;;;28.16;68.64;101179.03;5059187;28;45331;-73
2022/08/03 09:15:22;;;;;;;;;4.33;3.67;;;;;28.20;67.87;101175.19;5040537;28;45553;-73
2022/08/03 09:17:49;;;;;;;;;4.33;3.00;;;;;28.26;67.11;101168.53;5057793;28;45407;-72
2022/08/03 09:20:15;;;;;;;;;4.00;4.00;;;;;28.33;67.05;101183.53;5058979;28;46502;-72
2022/08/03 09:23:00;;;;;;;;;4.00;4.00;;;;;28.39;65.93;101176.88;5040198;28;48218;-71
2022/08/03 09:25:31;;;;;;;;;3.67;3.67;;;;;28.41;65.46;101175.81;5020694;28;45282;-72
2022/08/03 09:28:14;;;;;;;;;5.33;3.00;;;;;28.49;65.21;101172.66;5044695;28;45443;-72
2022/08/03 09:30:42;;;;;;;;;3.67;2.67;;;;;28.57;65.39;101181.25;5038279;28;46531;-71
2022/08/03 09:33:15;;;;;;;;;3.00;3.00;;;;;28.61;65.02;101179.22;5037365;28;45368;-72
2022/08/03 09:35:41;;;;;;;;;2.67;2.67;;;;;28.64;64.51;101169.03;5037245;28;45355;-73
2022/08/03 09:38:14;;;;;;;;;4.00;4.00;;;;;28.68;64.08;101176.03;5038700;28;45538;-72
2022/08/03 09:40:40;;;;;;;;;4.00;3.33;;;;;28.75;64.03;101181.97;5045675;28;45943;-73
2022/08/03 09:43:09;;;;;;;;;3.00;2.00;;;;;28.78;63.81;101170.06;5040423;28;45367;-72
2022/08/03 09:45:36;;;;;;;;;3.67;3.67;;;;;28.84;63.37;101172.41;5040881;28;45313;-72
2022/08/03 09:48:20;;;;;;;;;3.67;3.00;;;;;28.91;63.77;101169.22;5058649;28;45463;-72
2022/08/03 09:50:50;;;;;;;;;3.67;2.67;;;;;28.94;62.28;101166.38;5056953;28;46936;-71
2022/08/03 09:53:16;;;;;;;;;5.67;4.33;;;;;29.00;63.21;101159.69;5056243;28;45379;-72
2022/08/03 09:55:52;;;;;;;;;3.00;3.00;;;;;29.06;62.52;101153.00;5051312;28;45284;-73
2022/08/03 09:58:20;;;;;;;;;5.00;2.67;;;;;29.11;61.88;101151.75;5058390;28;45367;-71
2022/08/03 10:01:04;;;;;;;;;3.67;3.00;;;;;29.16;62.10;101155.06;5045037;28;47457;-73
2022/08/03 10:03:34;;;;;;;;;3.67;3.67;;;;;29.23;61.68;101144.66;5046983;28;45423;-73
2022/08/03 10:06:21;;;;;;;;;3.00;3.00;;;;;29.25;62.10;101142.75;5040188;28;45404;-73
2022/08/03 10:08:46;;;;;;;;;3.67;3.67;;;;;29.29;61.39;101144.28;5058535;28;45562;-71
2022/08/03 10:11:28;;;;;;;;;8.67;5.67;;;;;29.35;61.43;101148.44;5056795;28;46021;-71
2022/08/03 10:13:53;;;;;;;;;1.33;1.33;;;;;29.38;60.15;101135.53;5057878;28;45346;-71
2022/08/03 10:16:19;;;;;;;;;2.67;2.67;;;;;29.44;59.72;101137.88;5056772;28;61302;-72
2022/08/03 10:18:44;;;;;;;;;2.33;2.33;;;;;29.52;60.01;101136.53;5055702;28;61400;-74
2022/08/03 10:21:15;;;;;;;;;3.00;2.00;;;;;29.57;59.49;101126.28;5050839;28;67084;-72
2022/08/03 10:23:40;;;;;;;;;2.00;2.00;;;;;29.58;58.87;101128.00;5037760;28;45400;-73
2022/08/03 10:26:06;;;;;;;;;2.67;1.67;;;;;29.63;58.67;101125.88;5035870;28;64481;-72
2022/08/03 10:28:36;;;;;;;;;4.00;3.00;;;;;29.65;58.04;101119.34;5044807;28;45187;-71
2022/08/03 10:31:04;;;;;;;;;2.00;2.00;;;;;29.72;57.82;101115.28;5058786;22;45559;-72
2022/08/03 10:33:34;;;;;;;;;2.00;2.00;;;;;29.78;57.75;101113.13;5039656;28;45336;-71
2022/08/03 10:36:00;;;;;;;;;2.67;2.00;;;;;29.80;57.97;101112.03;5056481;28;45372;-73
2022/08/03 10:38:37;;;;;;;;;3.67;3.67;;;;;29.89;57.05;101119.63;5057464;28;50250;-72
2022/08/03 10:41:03;;;;;;;;;2.67;2.67;;;;;29.91;56.62;101103.16;5056606;28;46227;-71
2022/08/03 10:43:43;;;;;;;;;2.33;2.33;;;;;29.97;56.21;101114.53;5055580;28;61038;-72
2022/08/03 10:46:08;;;;;;;;;1.67;1.67;;;;;30.04;56.37;101109.53;5056304;28;45429;-72
2022/08/03 10:48:35;;;;;;;;;4.33;3.00;;;;;30.10;55.81;101101.00;5057581;28;45456;-73
2022/08/03 10:51:00;;;;;;;;;1.33;1.33;;;;;30.16;55.10;101108.78;5054677;28;63710;-72
2022/08/03 10:53:44;;;;;;;;;2.00;2.00;;;;;30.21;54.58;101106.63;5058839;28;52011;-73
2022/08/03 10:59:16;;;;;;;;;2.33;2.33;;;;;30.34;55.41;101086.72;5056728;28;45537;-73
2022/08/03 11:01:57;;;;;;;;;2.00;2.00;;;;;30.43;54.76;101094.28;5048302;28;46332;-73
2022/08/03 11:04:23;;;;;;;;;2.67;2.67;;;;;30.46;53.85;101094.94;5038376;28;50574;-73
2022/08/03 11:07:14;;;;;;;;;1.67;1.67;;;;;30.49;54.07;101092.00;5057378;28;45315;-73
2022/08/03 11:09:41;;;;;;;;;1.33;1.33;;;;;30.53;54.32;101087.22;5057064;28;45693;-72
2022/08/03 11:12:19;;;;;;;;;3.33;2.00;;;;;30.56;53.66;101083.41;5057191;28;46163;-72
2022/08/03 11:14:47;;;;;;;;;4.00;2.00;;;;;30.63;54.00;101079.25;5057363;28;45347;-72
2022/08/03 11:17:12;;;;;;;;;1.33;1.33;;;;;30.66;53.02;101082.66;5056814;28;45315;-73
2022/08/03 11:19:48;;;;;;;;;3.67;2.33;;;;;30.75;51.88;101076.63;5055739;28;45530;-72
2022/08/03 11:22:14;;;;;;;;;2.33;2.33;;;;;30.82;51.29;101079.78;5056730;28;47199;-73
2022/08/03 11:24:39;;;;;;;;;2.00;2.00;;;;;30.90;51.32;101076.53;5056016;28;45453;-72
2022/08/03 11:27:14;;;;;;;;;2.33;1.67;;;;;30.98;50.67;101079.56;5056754;28;45210;-73
2022/08/03 11:29:58;;;;;;;;;4.00;2.00;;;;;31.04;50.65;101070.94;5057004;28;45632;-71
2022/08/03 11:32:46;;;;;;;;;3.00;2.00;;;;;31.12;51.43;101065.84;5056720;28;45572;-73
2022/08/03 11:35:14;;;;;;;;;2.00;2.00;;;;;31.22;50.16;101060.59;5056809;28;45508;-74
2022/08/03 11:38:03;;;;;;;;;3.00;2.33;;;;;31.33;51.13;101062.59;5056984;28;45306;-72